Jacksonville, North Carolina
Current Conditions -  °F | °C
As of 1:56 PM on Saturday 20 Dec 2014 (Local Time) from KNCA Reporting Station
Light Rain Light Rain  
Wind Chill: 38°   Ceiling: 6000
Heat Index: 43°   Visibility: 7mi
Dew Point: 39°   Wind: 9mph
Humidity: 86%   Direction: 10°N
Pressure: 30.24"   Gusts: NA
Location:  34.75°N, 77.42°W
Report Text: KNCA 201856Z AUTO 01008KT 7SM -RA FEW011 BKN060 OVC080 06/04 A3024 RMK AO2 RAB1758 SLP242 P0001 T00610039
Loading
Personal Weather Stations






























Interactive Weather Map New forecast layout! Learn more

10-Day Weather Forecast

Advertisements
Track Severe Weather on mobile